KERI/ERI METAR and TAF weather

Enter ICAO airport designator
Station Type Date Time Source
KERI METAR 2019/10/21 04:51 UTC NOAA

KERI 210451Z AUTO 00000KT 10SM CLR 10/07 A3000 RMK AO2 SLP159 T01000072 402110089


Station Type Date Time Source
KERI Decoded METAR 2019/10/21 04:51 UTC NOAA

ERIE INTERNATIONAL AIRPORT, PA, United States (KERI) 42-05N 080-11W 222M
Oct 21, 2019 - 12:51 AM EDT / 2019.10.21 0451 UTC
Wind: Calm:0
Visibility: 10 mile(s):0
Sky conditions: clear
Temperature: 50.0 F (10.0 C)
Dew Point: 45.0 F (7.2 C)
Relative Humidity: 82%
Pressure (altimeter): 30 in. Hg (1015 hPa)
ob: KERI 210451Z AUTO 00000KT 10SM CLR 10/07 A3000 RMK AO2 SLP159 T01000072 402110089
cycle: 5

Station Type Date Time Source
KERI TAF 2019/10/20 18:24 UTC NOAA

TAF KERI 201723Z 2018/2118 VRB04KT P6SM FEW250
FM211200 12008KT P6SM SCT250
FM211700 13012G19KT P6SM BKN150

Example: see airport list